Time;durP1;ratioP1;P1;durP2;ratioP2;P2;SDS_P1;SDS_P2;PMS_P1;PMS_P2;Temp;Humidity;BMP_temperature;BMP_pressure;BME280_temperature;BME280_humidity;BME280_pressure;Samples;Min_cycle;Max_cycle;Signal;HPM_P1;HPM_P2
2023/12/12 00:01:53;;;;;;;53.20;26.95;;;3.20;99.90;;;;;;5103682;28;20031;-70
2023/12/12 00:04:20;;;;;;;46.63;26.23;;;;;;;;;;5103757;28;20062;-70
2023/12/12 00:06:46;;;;;;;37.88;20.95;;;;;;;;;;5103449;28;20058;-70
2023/12/12 00:09:12;;;;;;;39.17;22.17;;;;;;;;;;5103753;28;20052;-70
2023/12/12 00:11:37;;;;;;;30.58;17.98;;;3.30;99.90;;;;;;5103250;28;20027;-70
2023/12/12 00:14:03;;;;;;;37.85;18.83;;;3.40;99.90;;;;;;5102103;28;20036;-70
2023/12/12 00:16:29;;;;;;;43.85;20.85;;;3.30;99.90;;;;;;5103132;28;20059;-70
2023/12/12 00:18:54;;;;;;;46.58;23.52;;;3.60;99.90;;;;;;5103288;28;20049;-69
2023/12/12 00:21:20;;;;;;;42.65;22.27;;;;;;;;;;5103445;28;20077;-70
2023/12/12 00:23:46;;;;;;;50.95;25.92;;;3.80;99.90;;;;;;5103035;28;20307;-70
2023/12/12 00:26:12;;;;;;;41.13;20.88;;;;;;;;;;5117513;28;20040;-70
2023/12/12 00:28:39;;;;;;;43.80;20.08;;;3.50;99.90;;;;;;5123606;28;20020;-71
2023/12/12 00:31:05;;;;;;;38.05;19.67;;;;;;;;;;5123463;28;20039;-72
2023/12/12 00:33:31;;;;;;;41.42;20.55;;;;;;;;;;5123394;28;20084;-72
2023/12/12 00:36:00;;;;;;;38.70;20.40;;;3.40;99.90;;;;;;5123186;28;20043;-71
2023/12/12 00:38:29;;;;;;;39.53;21.60;;;3.60;99.90;;;;;;5123526;28;20031;-72
2023/12/12 00:40:55;;;;;;;50.47;21.33;;;3.60;99.90;;;;;;5123299;28;20032;-71
2023/12/12 00:43:22;;;;;;;40.00;21.15;;;3.40;99.90;;;;;;5123253;28;20568;-70
2023/12/12 00:45:48;;;;;;;49.80;22.77;;;3.40;99.90;;;;;;5123223;28;20015;-70
2023/12/12 00:48:13;;;;;;;49.70;24.27;;;3.60;99.90;;;;;;5123223;28;20382;-70
2023/12/12 00:50:39;;;;;;;48.75;23.08;;;;;;;;;;5122113;28;20027;-70
2023/12/12 00:53:05;;;;;;;39.90;23.17;;;3.40;99.90;;;;;;5123061;28;20023;-70
2023/12/12 00:55:31;;;;;;;46.65;22.80;;;;;;;;;;5122859;28;20046;-70
2023/12/12 00:57:57;;;;;;;43.20;21.20;;;;;;;;;;5123122;28;20031;-70
2023/12/12 01:00:23;;;;;;;40.10;20.25;;;;;;;;;;5122963;28;20315;-70
2023/12/12 01:02:49;;;;;;;38.97;20.83;;;3.50;99.90;;;;;;5122923;28;20184;-70
2023/12/12 01:05:15;;;;;;;45.50;20.05;;;3.40;99.90;;;;;;5122647;28;20051;-71
2023/12/12 01:07:41;;;;;;;39.65;20.95;;;3.90;99.90;;;;;;5122829;28;20042;-71
2023/12/12 01:10:07;;;;;;;41.25;21.27;;;;;;;;;;5122859;28;20112;-70
2023/12/12 01:12:34;;;;;;;41.78;20.08;;;3.50;99.90;;;;;;5122665;28;20035;-70
2023/12/12 01:15:00;;;;;;;43.90;20.35;;;3.50;99.90;;;;;;5113666;28;20307;-70
2023/12/12 01:17:26;;;;;;;41.00;19.98;;;3.50;99.90;;;;;;5102343;28;20039;-70
2023/12/12 01:19:52;;;;;;;44.22;21.80;;;;;;;;;;5109551;28;20027;-70
2023/12/12 01:22:18;;;;;;;42.60;22.02;;;;;;;;;;5122464;28;20034;-70
2023/12/12 01:24:44;;;;;;;46.78;22.80;;;3.80;99.90;;;;;;5122464;28;20022;-69
2023/12/12 01:27:10;;;;;;;49.83;23.15;;;3.70;99.90;;;;;;5112730;28;20090;-70
2023/12/12 01:29:36;;;;;;;42.17;21.30;;;3.80;99.90;;;;;;5101976;28;20035;-69
2023/12/12 01:32:02;;;;;;;37.35;20.92;;;;;;;;;;5102083;28;20028;-70
2023/12/12 01:34:28;;;;;;;46.88;22.45;;;;;;;;;;5102000;28;20020;-69
2023/12/12 01:36:54;;;;;;;40.55;21.38;;;3.70;99.90;;;;;;5101765;28;20355;-71
2023/12/12 01:39:20;;;;;;;39.95;20.75;;;3.70;99.90;;;;;;5101740;28;20019;-70
2023/12/12 01:41:47;;;;;;;40.97;21.15;;;3.70;99.90;;;;;;5101851;28;20090;-70
2023/12/12 01:44:13;;;;;;;40.90;21.08;;;;;;;;;;5101685;28;20189;-70
2023/12/12 01:46:39;;;;;;;42.85;21.17;;;;;;;;;;5101769;28;20039;-71
2023/12/12 01:49:06;;;;;;;34.05;19.90;;;3.70;99.90;;;;;;5101645;28;20016;-70
2023/12/12 01:51:32;;;;;;;34.42;18.65;;;;;;;;;;5101436;28;20560;-70
2023/12/12 01:54:01;;;;;;;33.55;17.25;;;3.60;99.90;;;;;;5101623;28;20024;-70
2023/12/12 01:56:28;;;;;;;36.20;17.33;;;3.60;99.90;;;;;;5101409;28;20085;-71
2023/12/12 01:58:56;;;;;;;38.17;20.33;;;3.40;99.90;;;;;;5101489;28;20051;-70
2023/12/12 02:01:22;;;;;;;34.75;18.35;;;3.50;99.90;;;;;;5101295;28;20027;-70
2023/12/12 02:03:51;;;;;;;33.67;17.77;;;3.90;99.90;;;;;;5101381;28;20051;-69
2023/12/12 02:06:22;;;;;;;40.87;18.50;;;3.60;99.90;;;;;;5101126;28;20043;-70
2023/12/12 02:08:49;;;;;;;36.78;17.75;;;3.60;99.90;;;;;;5101507;28;20260;-71
2023/12/12 02:11:16;;;;;;;33.53;15.80;;;;;;;;;;5101388;28;20024;-70
2023/12/12 02:13:42;;;;;;;34.33;16.02;;;;;;;;;;5101146;28;20020;-70
2023/12/12 02:16:09;;;;;;;31.38;16.13;;;3.70;99.90;;;;;;5101242;28;20371;-70
2023/12/12 02:18:35;;;;;;;26.35;15.15;;;;;;;;;;5104355;28;20039;-70
2023/12/12 02:21:01;;;;;;;33.22;16.08;;;3.90;99.90;;;;;;5101178;28;20031;-70
2023/12/12 02:23:30;;;;;;;31.40;16.33;;;3.70;99.90;;;;;;5101042;28;20028;-71
2023/12/12 02:25:57;;;;;;;31.15;14.40;;;3.60;99.90;;;;;;5101287;28;20067;-71
2023/12/12 02:28:22;;;;;;;33.58;15.27;;;3.80;99.90;;;;;;5101093;28;20020;-71
2023/12/12 02:30:49;;;;;;;30.98;14.88;;;;;;;;;;5101070;28;20065;-71
2023/12/12 02:33:14;;;;;;;29.23;14.57;;;3.70;99.90;;;;;;5100875;28;20085;-72
2023/12/12 02:35:40;;;;;;;26.88;14.75;;;;;;;;;;5101045;28;20027;-71
2023/12/12 02:38:06;;;;;;;28.75;14.90;;;3.60;99.90;;;;;;5100829;28;20246;-71
2023/12/12 02:40:32;;;;;;;26.40;14.38;;;;;;;;;;5101032;28;20023;-71
2023/12/12 02:42:58;;;;;;;20.08;12.13;;;3.80;99.90;;;;;;5100909;28;20222;-71
2023/12/12 02:45:24;;;;;;;24.83;12.15;;;;;;;;;;5101167;28;20032;-71
2023/12/12 02:47:50;;;;;;;22.30;11.93;;;4.10;99.90;;;;;;5100690;28;20414;-71
2023/12/12 02:50:17;;;;;;;28.73;13.65;;;3.80;99.90;;;;;;5100766;28;20255;-71
2023/12/12 02:52:43;;;;;;;22.63;10.50;;;;;;;;;;5100688;28;20069;-71
2023/12/12 02:55:09;;;;;;;18.80;11.00;;;;;;;;;;5100705;28;20043;-72
2023/12/12 02:57:35;;;;;;;21.73;10.98;;;;;;;;;;5100641;28;20040;-71
2023/12/12 03:00:01;;;;;;;22.85;10.85;;;;;;;;;;5100719;28;20028;-72
2023/12/12 03:02:27;;;;;;;19.88;10.68;;;3.90;99.90;;;;;;5100651;28;20035;-71
2023/12/12 03:04:53;;;;;;;22.35;11.82;;;;;;;;;;5100457;28;20040;-71
2023/12/12 03:07:19;;;;;;;23.48;11.20;;;;;;;;;;5100564;28;20036;-71
2023/12/12 03:09:46;;;;;;;25.25;11.40;;;;;;;;;;5100676;28;20039;-71
2023/12/12 03:12:12;;;;;;;22.60;11.43;;;;;;;;;;5100731;28;20027;-70
2023/12/12 03:14:37;;;;;;;29.77;11.82;;;3.50;99.90;;;;;;5103206;28;20300;-71
2023/12/12 03:17:04;;;;;;;23.90;11.00;;;;;;;;;;5104567;28;20050;-71
2023/12/12 03:19:30;;;;;;;22.58;11.35;;;;;;;;;;5104704;28;20032;-71
2023/12/12 03:21:56;;;;;;;23.45;12.82;;;;;;;;;;5104451;28;20038;-69
2023/12/12 03:24:21;;;;;;;25.10;12.88;;;3.30;99.90;;;;;;5104669;28;20032;-71
2023/12/12 03:26:47;;;;;;;26.75;13.27;;;3.30;99.90;;;;;;5104441;28;20070;-71
2023/12/12 03:29:13;;;;;;;22.92;12.40;;;3.20;99.90;;;;;;5104241;28;20059;-70
2023/12/12 03:31:39;;;;;;;28.90;12.30;;;3.30;99.90;;;;;;5104540;28;20028;-70
2023/12/12 03:34:05;;;;;;;27.83;12.73;;;;;;;;;;5104329;28;20024;-71
2023/12/12 03:36:31;;;;;;;25.60;11.45;;;;;;;;;;5104107;28;20343;-71
2023/12/12 03:38:57;;;;;;;23.38;12.32;;;;;;;;;;5104159;28;20032;-71
2023/12/12 03:41:24;;;;;;;27.10;12.05;;;3.20;99.90;;;;;;5103970;28;20295;-72
2023/12/12 03:43:50;;;;;;;23.98;11.70;;;3.20;99.90;;;;;;5104542;28;20027;-70
2023/12/12 03:46:16;;;;;;;23.15;11.23;;;3.30;99.90;;;;;;5107291;28;20032;-68
2023/12/12 03:48:42;;;;;;;23.40;11.00;;;;;;;;;;5104036;28;20068;-69
2023/12/12 03:51:09;;;;;;;28.00;11.20;;;3.30;99.90;;;;;;5103810;28;20343;-70
2023/12/12 03:53:35;;;;;;;19.85;10.65;;;;;;;;;;5104144;28;20322;-70
2023/12/12 03:56:01;;;;;;;23.05;11.52;;;;;;;;;;5103696;28;20363;-71
2023/12/12 03:58:27;;;;;;;23.88;10.90;;;;;;;;;;5103976;28;20037;-70
2023/12/12 04:00:53;;;;;;;18.65;10.32;;;3.50;99.90;;;;;;5103872;28;20058;-68
2023/12/12 04:03:19;;;;;;;23.45;10.88;;;3.70;99.90;;;;;;5103601;28;20277;-68
2023/12/12 04:05:45;;;;;;;23.00;11.15;;;;;;;;;;5103516;28;20359;-69
2023/12/12 04:08:11;;;;;;;24.52;10.70;;;;;;;;;;5103613;28;20032;-70
2023/12/12 04:10:37;;;;;;;16.65;8.65;;;;;;;;;;5103383;28;20032;-68
2023/12/12 04:13:03;;;;;;;17.25;8.07;;;;;;;;;;5103561;28;20035;-68
2023/12/12 04:15:29;;;;;;;15.27;7.70;;;3.60;99.90;;;;;;5103388;28;20039;-68
2023/12/12 04:17:54;;;;;;;19.77;8.55;;;3.90;99.90;;;;;;5103464;28;20043;-68
2023/12/12 04:20:20;;;;;;;18.13;8.30;;;4.00;99.90;;;;;;5103321;28;20089;-68
2023/12/12 04:22:46;;;;;;;19.27;8.90;;;;;;;;;;5109021;28;20125;-68
2023/12/12 04:25:12;;;;;;;19.58;9.25;;;;;;;;;;5109059;28;20031;-68
2023/12/12 04:27:38;;;;;;;18.10;8.63;;;;;;;;;;5118810;28;20019;-69
2023/12/12 04:30:05;;;;;;;16.02;8.82;;;4.00;99.90;;;;;;5109266;28;20086;-68
2023/12/12 04:32:31;;;;;;;19.40;8.30;;;4.00;99.90;;;;;;5111662;28;20024;-69
2023/12/12 04:34:57;;;;;;;18.13;10.02;;;;;;;;;;5123480;28;20035;-69
2023/12/12 04:37:23;;;;;;;19.95;8.35;;;;;;;;;;5123409;28;20035;-71
2023/12/12 04:39:49;;;;;;;19.23;8.75;;;4.20;99.90;;;;;;5123219;28;20195;-70
2023/12/12 04:42:15;;;;;;;15.77;8.57;;;;;;;;;;5123454;28;20334;-70
2023/12/12 04:44:41;;;;;;;17.30;8.15;;;;;;;;;;5121832;28;20211;-70
2023/12/12 04:47:07;;;;;;;17.63;8.70;;;4.20;99.90;;;;;;5123255;28;20024;-69
2023/12/12 04:49:34;;;;;;;21.40;9.48;;;;;;;;;;5109553;28;20099;-70
2023/12/12 04:52:00;;;;;;;22.05;9.90;;;;;;;;;;5102647;28;20050;-70
2023/12/12 04:54:25;;;;;;;16.27;8.13;;;4.00;99.90;;;;;;5102829;28;20087;-70
2023/12/12 04:56:51;;;;;;;17.67;8.48;;;4.10;99.90;;;;;;5102452;28;20453;-70
2023/12/12 04:59:17;;;;;;;25.30;10.80;;;;;;;;;;5102633;28;20024;-71
2023/12/12 05:01:43;;;;;;;23.52;9.85;;;4.20;99.90;;;;;;5102406;28;20429;-71
2023/12/12 05:04:09;;;;;;;21.75;9.02;;;;;;;;;;5102316;28;20056;-70
2023/12/12 05:06:35;;;;;;;20.45;10.25;;;4.10;99.90;;;;;;5102133;28;20047;-71
2023/12/12 05:09:01;;;;;;;22.23;11.23;;;;;;;;;;5102167;28;20100;-73
2023/12/12 05:11:27;;;;;;;18.27;10.18;;;4.00;99.90;;;;;;5102522;28;20031;-71
2023/12/12 05:13:53;;;;;;;16.92;9.48;;;;;;;;;;5110329;28;20023;-70
2023/12/12 05:16:19;;;;;;;23.90;10.90;;;;;;;;;;5122456;28;20050;-71
2023/12/12 05:18:45;;;;;;;18.67;9.63;;;3.90;99.90;;;;;;5122676;28;20227;-70
2023/12/12 05:21:11;;;;;;;21.25;9.85;;;3.80;99.90;;;;;;5122751;28;20032;-71
2023/12/12 05:23:37;;;;;;;17.90;9.85;;;;;;;;;;5108918;28;20358;-70
2023/12/12 05:26:03;;;;;;;30.45;10.52;;;;;;;;;;5101998;28;20051;-69
2023/12/12 05:28:30;;;;;;;23.08;10.18;;;3.50;99.90;;;;;;5112545;28;20031;-70
2023/12/12 05:30:55;;;;;;;24.85;11.13;;;3.60;99.90;;;;;;5101919;28;20031;-70
2023/12/12 05:33:21;;;;;;;23.38;9.27;;;;;;;;;;5101702;28;20031;-70
2023/12/12 05:35:48;;;;;;;22.33;9.98;;;4.00;99.90;;;;;;5101459;28;20254;-71
2023/12/12 05:38:13;;;;;;;21.70;10.57;;;3.40;99.90;;;;;;5101553;28;20069;-70
2023/12/12 05:40:39;;;;;;;17.85;8.95;;;3.90;99.90;;;;;;5104225;28;20035;-71
2023/12/12 05:43:05;;;;;;;18.42;8.50;;;3.70;99.90;;;;;;5122017;28;20032;-70
2023/12/12 05:45:31;;;;;;;22.08;8.85;;;3.60;99.90;;;;;;5122031;28;20015;-71
2023/12/12 05:47:57;;;;;;;27.58;9.82;;;;;;;;;;5107810;28;20038;-73
2023/12/12 05:50:23;;;;;;;16.27;7.25;;;;;;;;;;5117549;28;20023;-71
2023/12/12 05:52:50;;;;;;;14.55;7.45;;;3.90;99.90;;;;;;5121955;28;20329;-73
2023/12/12 05:55:16;;;;;;;14.77;7.28;;;3.90;99.90;;;;;;5121863;28;20022;-72
2023/12/12 05:57:42;;;;;;;15.38;6.45;;;4.00;99.90;;;;;;5121806;28;20039;-69
2023/12/12 06:00:08;;;;;;;15.05;6.38;;;4.30;99.90;;;;;;5121845;28;20035;-71
2023/12/12 06:02:34;;;;;;;12.30;5.35;;;;;;;;;;5121073;28;20027;-71
2023/12/12 06:05:00;;;;;;;9.68;4.63;;;;;;;;;;5120662;28;20054;-70
2023/12/12 06:07:26;;;;;;;9.65;4.07;;;;;;;;;;5120793;28;20288;-71
2023/12/12 06:09:53;;;;;;;7.43;4.47;;;4.40;99.90;;;;;;5120686;28;20020;-70
2023/12/12 06:12:18;;;;;;;10.45;4.32;;;;;;;;;;5120778;27;20035;-71
2023/12/12 06:14:47;;;;;;;11.10;5.35;;;4.30;99.90;;;;;;5121067;28;20032;-71
2023/12/12 06:17:13;;;;;;;6.57;3.42;;;;;;;;;;5104557;28;20040;-71
2023/12/12 06:19:39;;;;;;;12.93;5.30;;;;;;;;;;5100986;28;20391;-70
2023/12/12 06:22:07;;;;;;;13.75;6.22;;;;;;;;;;5101103;28;20059;-73
2023/12/12 06:24:33;;;;;;;11.73;5.70;;;;;;;;;;5101445;28;20548;-71
2023/12/12 06:26:59;;;;;;;11.77;5.55;;;;;;;;;;5101040;28;20036;-73
2023/12/12 06:29:25;;;;;;;14.25;6.32;;;4.40;99.90;;;;;;5101174;28;20020;-70
2023/12/12 06:31:51;;;;;;;15.48;5.25;;;;;;;;;;5101050;28;20072;-72
2023/12/12 06:34:17;;;;;;;15.88;6.50;;;;;;;;;;5101110;28;20085;-70
2023/12/12 06:36:43;;;;;;;20.27;6.97;;;;;;;;;;5100994;28;20144;-70
2023/12/12 06:39:10;;;;;;;11.75;6.22;;;4.40;99.90;;;;;;5100393;28;20063;-70
2023/12/12 06:41:38;;;;;;;14.45;5.47;;;4.50;99.90;;;;;;5100802;28;20077;-71
2023/12/12 06:44:06;;;;;;;8.35;4.70;;;4.40;99.90;;;;;;5100817;28;20028;-70
2023/12/12 06:46:32;;;;;;;11.98;5.57;;;;;;;;;;5100708;28;20343;-70
2023/12/12 06:48:58;;;;;;;9.00;3.75;;;;;;;;;;5102272;28;20051;-70
2023/12/12 06:51:24;;;;;;;7.00;4.18;;;;;;;;;;5104774;28;20027;-71
2023/12/12 06:53:52;;;;;;;6.93;4.03;;;;;;;;;;5103091;28;20023;-71
2023/12/12 06:56:22;;;;;;;8.75;3.60;;;5.00;99.90;;;;;;5106826;28;20090;-71
2023/12/12 06:58:47;;;;;;;;;;;5.10;99.90;;;;;;5121896;28;20035;-69
2023/12/12 07:01:13;;;;;;;8.68;3.70;;;5.20;99.90;;;;;;5110707;28;20345;-71
2023/12/12 07:03:39;;;;;;;9.55;4.57;;;;;;;;;;5102598;28;20027;-70
2023/12/12 07:06:06;;;;;;;13.15;3.70;;;;;;;;;;5107122;28;20367;-69
2023/12/12 07:08:32;;;;;;;8.82;3.35;;;;;;;;;;5124493;28;20096;-69
2023/12/12 07:10:58;;;;;;;8.18;3.55;;;;;;;;;;5106510;28;20036;-69
2023/12/12 07:13:24;;;;;;;9.70;4.22;;;;;;;;;;5112013;28;20028;-69
2023/12/12 07:15:50;;;;;;;9.80;3.63;;;;;;;;;;5104207;28;20193;-69
2023/12/12 07:18:17;;;;;;;9.20;2.90;;;;;;;;;;5108767;28;20034;-70
2023/12/12 07:20:43;;;;;;;7.05;2.67;;;;;;;;;;5124854;28;20035;-70
2023/12/12 07:23:09;;;;;;;7.00;2.80;;;;;;;;;;5121513;28;20035;-69
2023/12/12 07:25:36;;;;;;;7.65;2.15;;;;;;;;;;5105107;28;20330;-70
2023/12/12 07:28:02;;;;;;;10.13;2.72;;;;;;;;;;5112147;28;20320;-69
2023/12/12 07:30:28;;;;;;;10.48;2.25;;;;;;;;;;5124604;28;20311;-70
2023/12/12 07:32:55;;;;;;;4.20;1.63;;;6.00;99.90;;;;;;5122354;28;20016;-70
2023/12/12 07:35:21;;;;;;;4.85;2.17;;;;;;;;;;5104317;28;20031;-70
2023/12/12 07:37:47;;;;;;;6.55;2.35;;;6.20;99.90;;;;;;5124488;28;20042;-71
2023/12/12 07:40:13;;;;;;;7.35;1.83;;;;;;;;;;5114940;28;20091;-71
2023/12/12 07:42:39;;;;;;;5.75;1.95;;;;;;;;;;5119499;28;20080;-71
2023/12/12 07:45:07;;;;;;;7.60;1.90;;;6.80;98.70;;;;;;5115345;28;20362;-70
2023/12/12 07:47:33;;;;;;;5.32;1.88;;;6.80;99.30;;;;;;5107896;28;20095;-71
2023/12/12 07:49:59;;;;;;;8.82;2.13;;;;;;;;;;5103865;28;20039;-71
2023/12/12 07:52:26;;;;;;;9.25;2.72;;;6.70;98.30;;;;;;5104029;28;20065;-72
2023/12/12 07:54:51;;;;;;;9.05;3.70;;;5.90;97.60;;;;;;5102411;28;20309;-71
2023/12/12 07:57:18;;;;;;;8.10;4.20;;;;;;;;;;5103757;28;20036;-71
2023/12/12 07:59:44;;;;;;;14.88;7.20;;;6.80;99.90;;;;;;5103308;28;20402;-71
2023/12/12 08:02:10;;;;;;;7.05;3.45;;;7.20;99.90;;;;;;5104053;28;20081;-71
2023/12/12 08:04:36;;;;;;;10.50;4.00;;;7.10;99.90;;;;;;5103675;28;20028;-71
2023/12/12 08:07:03;;;;;;;8.40;3.95;;;7.30;97.10;;;;;;5107307;28;20185;-71
2023/12/12 08:09:29;;;;;;;9.05;4.65;;;;;;;;;;5111034;28;20026;-71
2023/12/12 08:11:56;;;;;;;12.60;4.68;;;7.50;99.90;;;;;;5119629;28;20091;-72
2023/12/12 08:14:22;;;;;;;8.27;4.00;;;;;;;;;;5121754;28;20023;-71
2023/12/12 08:16:47;;;;;;;13.38;5.03;;;7.80;99.90;;;;;;5121798;28;20035;-71
2023/12/12 08:19:14;;;;;;;8.50;4.38;;;7.80;96.30;;;;;;5124098;28;20239;-71
2023/12/12 08:21:40;;;;;;;10.38;4.47;;;;;;;;;;5122288;27;20090;-71
2023/12/12 08:24:06;;;;;;;11.07;4.15;;;;;;;;;;5122071;28;20041;-71
2023/12/12 08:26:46;;;;;;;15.82;5.40;;;8.00;93.90;;;;;;5122822;28;20023;-71
2023/12/12 08:29:14;;;;;;;7.63;3.80;;;7.90;94.10;;;;;;5124089;28;20027;-72
2023/12/12 08:31:40;;;;;;;11.95;4.25;;;7.90;99.90;;;;;;5123696;27;20028;-71
2023/12/12 08:34:07;;;;;;;9.63;4.05;;;;;;;;;;5123751;28;20043;-71
2023/12/12 08:36:33;;;;;;;10.45;3.90;;;;;;;;;;5123562;28;20096;-71
2023/12/12 08:39:02;;;;;;;8.02;3.63;;;8.10;92.50;;;;;;5123363;28;20039;-71
2023/12/12 08:41:30;;;;;;;12.13;3.40;;;8.20;91.70;;;;;;5122513;28;20099;-71
2023/12/12 08:43:59;;;;;;;4.43;2.00;;;8.00;97.50;;;;;;5122153;28;20245;-72
2023/12/12 08:46:28;;;;;;;5.45;1.85;;;8.60;97.00;;;;;;5122541;28;20031;-72
2023/12/12 08:48:55;;;;;;;10.20;2.17;;;8.30;90.30;;;;;;5123682;28;20024;-71
2023/12/12 08:51:22;;;;;;;7.43;2.78;;;8.50;97.10;;;;;;5123769;28;20199;-71
2023/12/12 08:53:48;;;;;;;6.05;3.00;;;;;;;;;;5123565;28;20300;-72
2023/12/12 08:56:15;;;;;;;6.05;2.83;;;8.50;90.00;;;;;;5122891;28;20047;-71
2023/12/12 08:58:45;;;;;;;8.65;3.35;;;8.60;96.70;;;;;;5122202;28;20016;-72
2023/12/12 09:01:11;;;;;;;7.47;4.97;;;8.40;96.40;;;;;;5123755;28;20027;-72
2023/12/12 09:03:37;;;;;;;10.75;4.10;;;9.10;92.60;;;;;;5123879;28;20023;-73
2023/12/12 09:06:04;;;;;;;9.65;4.00;;;;;;;;;;5122143;28;20054;-71
2023/12/12 09:08:30;;;;;;;6.22;3.33;;;;;;;;;;5123310;28;20201;-70
2023/12/12 09:10:56;;;;;;;10.05;4.43;;;8.90;89.40;;;;;;5120843;28;20246;-73
2023/12/12 09:13:22;;;;;;;9.73;4.22;;;8.50;96.00;;;;;;5122963;28;20011;-70
2023/12/12 09:15:48;;;;;;;10.45;4.18;;;;;;;;;;5122072;28;20346;-72
2023/12/12 09:18:14;;;;;;;11.70;4.28;;;8.50;90.80;;;;;;5122849;28;20069;-72
2023/12/12 09:20:40;;;;;;;12.60;4.22;;;;;;;;;;5122323;28;20031;-72
2023/12/12 09:23:05;;;;;;;8.05;4.75;;;9.20;93.40;;;;;;5105005;28;20048;-69
2023/12/12 09:25:31;;;;;;;14.27;4.85;;;8.80;96.10;;;;;;5102562;28;20211;-72
2023/12/12 09:27:57;;;;;;;10.25;4.82;;;8.70;96.10;;;;;;5102142;28;20311;-72
2023/12/12 09:30:23;;;;;;;10.38;4.22;;;;;;;;;;5102456;28;20028;-70
2023/12/12 09:32:50;;;;;;;9.20;4.60;;;;;;;;;;5120377;28;20056;-72
2023/12/12 09:35:16;;;;;;;15.07;5.85;;;8.70;92.90;;;;;;5122659;28;20042;-72
2023/12/12 09:37:42;;;;;;;10.02;4.35;;;8.60;95.90;;;;;;5122476;28;20311;-71
2023/12/12 09:40:09;;;;;;;9.23;3.85;;;8.60;88.90;;;;;;5122613;28;20034;-71
2023/12/12 09:42:36;;;;;;;11.23;4.88;;;8.60;88.30;;;;;;5122427;28;20030;-70
2023/12/12 09:45:06;;;;;;;9.90;4.28;;;8.50;94.40;;;;;;5122452;28;20069;-70
2023/12/12 09:47:32;;;;;;;11.45;4.82;;;8.80;96.00;;;;;;5121408;28;20011;-70
2023/12/12 09:49:58;;;;;;;12.52;4.68;;;8.80;90.60;;;;;;5122017;28;20027;-71
2023/12/12 09:52:33;;;;;;;10.65;4.38;;;8.80;88.20;;;;;;5122213;28;20043;-70
2023/12/12 09:55:00;;;;;;;11.95;5.05;;;;;;;;;;5122050;28;20023;-70
2023/12/12 09:57:27;;;;;;;10.27;5.55;;;8.90;87.80;;;;;;5121909;28;20028;-70
2023/12/12 09:59:52;;;;;;;10.30;4.53;;;8.60;90.60;;;;;;5106636;28;20016;-71
2023/12/12 10:02:22;;;;;;;12.23;5.28;;;8.50;95.70;;;;;;5100079;28;20036;-70
2023/12/12 10:04:51;;;;;;;10.90;4.80;;;8.50;88.50;;;;;;5101557;28;20020;-70
2023/12/12 10:07:18;;;;;;;9.40;5.05;;;8.40;89.20;;;;;;5101944;28;20032;-71
2023/12/12 10:09:46;;;;;;;12.43;6.05;;;8.60;89.70;;;;;;5101726;28;20113;-71
2023/12/12 10:12:12;;;;;;;11.90;5.60;;;;;;;;;;5101763;28;20055;-72
2023/12/12 10:14:44;;;;;;;16.20;6.70;;;8.30;96.70;;;;;;5101509;28;20075;-71
2023/12/12 10:17:11;;;;;;;11.40;5.30;;;8.10;89.80;;;;;;5101266;28;20336;-72
2023/12/12 10:19:42;;;;;;;19.58;4.85;;;8.10;89.70;;;;;;5101332;28;20043;-73
2023/12/12 10:22:09;;;;;;;13.10;5.50;;;8.30;96.60;;;;;;5101339;28;20024;-70
2023/12/12 10:24:37;;;;;;;12.30;6.15;;;8.40;89.40;;;;;;5101136;28;20020;-70
2023/12/12 10:27:03;;;;;;;11.57;5.80;;;8.50;96.20;;;;;;5101270;28;20261;-70
2023/12/12 10:29:31;;;;;;;13.77;6.22;;;8.50;96.00;;;;;;5101392;28;20145;-71
2023/12/12 10:31:58;;;;;;;15.85;6.07;;;8.70;88.20;;;;;;5101194;28;20028;-70
2023/12/12 10:34:27;;;;;;;16.45;8.13;;;9.00;95.70;;;;;;5101073;28;20032;-71
2023/12/12 10:36:54;;;;;;;11.55;6.13;;;8.90;87.30;;;;;;5100957;28;20373;-70
2023/12/12 10:39:20;;;;;;;12.55;5.45;;;;;;;;;;5103699;28;20055;-70
2023/12/12 10:41:55;;;;;;;15.02;5.80;;;9.20;89.60;;;;;;5121351;28;20032;-70
2023/12/12 10:44:21;;;;;;;12.68;6.15;;;9.20;86.50;;;;;;5121512;28;20019;-70
2023/12/12 10:46:52;;;;;;;12.18;5.10;;;9.20;85.70;;;;;;5121065;28;20067;-70
2023/12/12 10:49:21;;;;;;;10.25;5.32;;;9.50;92.10;;;;;;5121490;28;20051;-70
2023/12/12 10:51:48;;;;;;;11.70;6.65;;;9.40;84.90;;;;;;5120202;28;20023;-71
2023/12/12 10:54:16;;;;;;;13.70;6.55;;;9.60;94.10;;;;;;5121527;28;20060;-69
2023/12/12 10:56:46;;;;;;;9.85;5.18;;;9.60;93.60;;;;;;5121496;28;20030;-70
2023/12/12 10:59:16;;;;;;;13.25;6.10;;;9.50;83.70;;;;;;5121413;28;20023;-71
2023/12/12 11:01:46;;;;;;;16.45;5.18;;;9.60;93.50;;;;;;5121320;28;20031;-69
2023/12/12 11:04:14;;;;;;;11.13;5.30;;;9.40;93.40;;;;;;5120347;28;20043;-70
2023/12/12 11:06:41;;;;;;;9.30;5.25;;;9.80;93.40;;;;;;5119241;28;20364;-70
2023/12/12 11:09:08;;;;;;;9.77;5.43;;;;;;;;;;5121291;28;20039;-70
2023/12/12 11:11:35;;;;;;;9.98;6.10;;;9.90;89.90;;;;;;5121371;28;20260;-70
2023/12/12 11:14:02;;;;;;;13.43;6.03;;;9.70;81.90;;;;;;5121187;28;20126;-70
2023/12/12 11:16:28;;;;;;;15.90;7.00;;;9.90;81.70;;;;;;5109046;28;20032;-71
2023/12/12 11:18:56;;;;;;;17.08;7.20;;;9.90;90.20;;;;;;5099723;28;20035;-71
2023/12/12 11:21:54;;;;;;;16.15;7.63;;;9.90;91.30;;;;;;5100573;28;20059;-71
2023/12/12 11:24:20;;;;;;;14.73;7.05;;;10.10;92.20;;;;;;5081519;28;20028;-70
2023/12/12 11:26:52;;;;;;;10.70;6.25;;;10.30;80.70;;;;;;5100461;28;20342;-71
2023/12/12 11:29:24;;;;;;;16.50;7.28;;;10.20;80.00;;;;;;5100073;28;20024;-70
2023/12/12 11:32:02;;;;;;;12.48;5.60;;;10.20;79.60;;;;;;5100358;28;20049;-71
2023/12/12 11:34:46;;;;;;;11.60;5.70;;;10.30;79.30;;;;;;5099487;28;20016;-70
2023/12/12 11:37:12;;;;;;;17.73;6.72;;;;;;;;;;5102607;28;20130;-70
2023/12/12 11:39:49;;;;;;;18.25;7.22;;;10.20;91.00;;;;;;5102568;28;20016;-70
2023/12/12 11:42:24;;;;;;;20.98;8.20;;;10.50;77.70;;;;;;5102566;28;20024;-71
2023/12/12 11:44:55;;;;;;;22.60;8.10;;;10.60;77.10;;;;;;5102905;28;20069;-70
2023/12/12 11:47:24;;;;;;;20.77;6.88;;;10.70;76.10;;;;;;5102987;28;20028;-70
2023/12/12 11:50:10;;;;;;;13.43;5.82;;;10.80;89.10;;;;;;5103964;28;20026;-70
2023/12/12 11:52:39;;;;;;;14.35;5.80;;;11.10;80.90;;;;;;5103787;28;20096;-72
2023/12/12 11:55:06;;;;;;;13.80;5.10;;;11.00;84.60;;;;;;5103566;28;20048;-72
2023/12/12 11:57:32;;;;;;;11.77;5.05;;;;;;;;;;5103825;28;20052;-70
2023/12/12 12:00:05;;;;;;;11.98;5.13;;;11.20;87.00;;;;;;5103587;28;20027;-70
2023/12/12 12:02:31;;;;;;;16.83;5.20;;;11.40;86.60;;;;;;5102224;28;20020;-72
2023/12/12 12:04:57;;;;;;;16.92;5.30;;;11.40;72.60;;;;;;5103516;28;20530;-70
2023/12/12 12:07:24;;;;;;;10.30;5.28;;;11.40;81.10;;;;;;5103551;28;20054;-72
2023/12/12 12:09:52;;;;;;;7.45;4.47;;;11.70;72.40;;;;;;5103444;28;20027;-70
2023/12/12 12:12:19;;;;;;;11.68;4.82;;;11.50;76.50;;;;;;5103548;28;20028;-70
2023/12/12 12:14:45;;;;;;;13.25;6.45;;;;;;;;;;5103355;28;20025;-70
2023/12/12 12:17:12;;;;;;;8.55;4.13;;;11.80;82.20;;;;;;5103477;28;20070;-69
2023/12/12 12:19:38;;;;;;;7.88;4.88;;;12.20;69.70;;;;;;5103493;28;20095;-70
2023/12/12 12:22:09;;;;;;;12.05;4.95;;;12.00;81.40;;;;;;5103369;28;20035;-70
2023/12/12 12:24:55;;;;;;;13.85;4.93;;;12.00;69.30;;;;;;5103349;28;20061;-70
2023/12/12 12:27:20;;;;;;;12.40;4.57;;;11.80;81.00;;;;;;5102955;28;20069;-70
2023/12/12 12:29:59;;;;;;;9.38;4.60;;;11.80;82.00;;;;;;5103119;28;20063;-71
2023/12/12 12:32:25;;;;;;;;;;;11.80;70.10;;;;;;5103705;28;20095;-70
2023/12/12 12:35:05;;;;;;;10.25;4.57;;;11.50;75.50;;;;;;5103151;28;19900;-70
2023/12/12 12:37:35;;;;;;;10.55;4.85;;;11.30;84.10;;;;;;5103060;28;20098;-72
2023/12/12 12:40:05;;;;;;;12.15;4.80;;;11.60;71.40;;;;;;5103180;28;20024;-71
2023/12/12 12:42:35;;;;;;;13.02;5.38;;;13.00;82.00;;;;;;5103181;28;20211;-70
2023/12/12 12:45:08;;;;;;;17.40;5.90;;;13.70;79.30;;;;;;5103040;28;20015;-71
2023/12/12 12:47:34;;;;;;;13.45;5.18;;;13.90;69.80;;;;;;5100486;28;20047;-70
2023/12/12 12:50:03;;;;;;;10.63;5.70;;;15.00;68.00;;;;;;5102935;28;20095;-72
2023/12/12 12:52:29;;;;;;;9.13;4.95;;;15.70;65.20;;;;;;5102885;28;20142;-71
2023/12/12 12:54:54;;;;;;;11.57;5.45;;;17.10;58.50;;;;;;5102732;28;20023;-70
2023/12/12 12:57:20;;;;;;;10.43;5.20;;;17.80;58.70;;;;;;5102590;28;20227;-71
2023/12/12 12:59:46;;;;;;;10.73;5.63;;;18.90;56.00;;;;;;5102769;28;20238;-71
2023/12/12 13:02:11;;;;;;;10.18;5.38;;;20.10;52.60;;;;;;5102629;28;20027;-70
2023/12/12 13:04:40;;;;;;;10.68;5.70;;;21.50;49.30;;;;;;5102257;28;20023;-71
2023/12/12 13:07:07;;;;;;;10.40;5.13;;;22.90;45.70;;;;;;5102344;28;20046;-71
2023/12/12 13:09:33;;;;;;;11.80;5.57;;;24.60;43.20;;;;;;5105610;28;20020;-71
2023/12/12 13:12:00;;;;;;;7.32;4.80;;;26.10;40.90;;;;;;5102418;28;20024;-70
2023/12/12 13:14:26;;;;;;;9.38;5.13;;;27.30;39.00;;;;;;5102809;28;20020;-70
2023/12/12 13:16:51;;;;;;;8.02;4.75;;;28.10;37.30;;;;;;5102335;28;20054;-70
2023/12/12 13:19:17;;;;;;;10.60;4.97;;;28.70;36.20;;;;;;5102516;28;20208;-72